Terminal Aerodrome Forecast
Issued by NWS

Home | Current Version | Previous Version | Text Only | Print | Product List | Glossary Off
Versions: 1 2 3 4 5 6 7 8 9 10 11 12 13 14 15 16 17 18 19 20 21 22 23 24

573
FTUS43 KFGF 111852 AAA
TAFBJI
TAF AMD
KBJI 111852Z 1119/1218 34018G28KT P6SM BKN015 OVC020
      TEMPO 1119/1120 3SM -SN BLSN OVC012
     FM112000 33018G28KT P6SM SCT010 BKN020
     FM112200 32017KT P6SM SCT020
     FM120400 28005KT P6SM SCT250=

USA.gov is the U.S. government's official web portal to all federal, state and local government web resources and services.